Zhong Hai Chang Yun6 — BPQF — position and weather

sailwx.info

Track history (hours):
 
Tides and Currents Weather Stations Pressure Air Temp Water Temp Dewpoint Dewpoint Depression Visibility Wind Speed Wind Dir Waves Ship Positions

Zhong Hai Chang Yun6

Last reported at 2018-Jan-22 23:51 UTC. Time now 2018-Jan-23 06:19 UTC.
Position N 48°36' W 006°00'.

Length 189 m; draft 11.5 m.

Type: Cargo ship. MMSI: 414712000.

Date/timePositionNaut miles runAvg speedWind from/ knotsBaromVisibWave heightAir tempDewpointWater temp
2018-Jan-22 23:51N 48°36' W 006°00'411.3
2018-Jan-22 23:30N 48°39' W 005°58'610.8
2018-Jan-22 22:57N 48°45' W 005°53'510.7
2018-Jan-22 22:29N 48°49' W 005°49'510.1
2018-Jan-22 22:00N 48°53' W 005°46'6 9.0
2018-Jan-22 21:23N 48°57' W 005°39'3 8.7
2018-Jan-22 20:59N 48°58' W 005°35'4 8.4
2018-Jan-22 20:30N 49°01' W 005°29'46 8.6
2018-Jan-22 15:11N 49°24' W 004°30'910.3
2018-Jan-22 14:20N 49°28' W 004°18'410.3
2018-Jan-22 13:59N 49°30' W 004°13'510.4
2018-Jan-22 13:28N 49°33' W 004°06'510.2
2018-Jan-22 12:59N 49°35' W 003°60'5 9.9
2018-Jan-22 12:29N 49°38' W 003°53'5 9.8
2018-Jan-22 12:00N 49°40' W 003°47'5 9.4
2018-Jan-22 11:28N 49°43' W 003°40'4 9.2
2018-Jan-22 11:00N 49°45' W 003°34'4 8.9
2018-Jan-22 10:30N 49°47' W 003°28'4 8.9
2018-Jan-22 10:00N 49°50' W 003°23'4 8.5
2018-Jan-22 09:30N 49°51' W 003°17'4 8.7
2018-Jan-22 09:00N 49°54' W 003°11'5 9.2
2018-Jan-22 08:30N 49°56' W 003°05'5 9.4
2018-Jan-22 08:00N 49°58' W 002°58'510.0
2018-Jan-22 07:30N 49°60' W 002°51'510.6
2018-Jan-22 07:00N 50°01' W 002°43'611.5
2018-Jan-22 06:30N 50°03' W 002°34'612.1
2018-Jan-22 06:00N 50°04' W 002°25'4113.3
2018-Jan-22 02:54N 50°15' W 001°23'511.3
2018-Jan-22 02:29N 50°16' W 001°16'810.5
2018-Jan-22 01:44N 50°18' W 001°04'2 9.5
2018-Jan-22 01:30N 50°19' W 001°01'5 8.6
2018-Jan-22 00:58N 50°20' W 000°54'4 7.8
2018-Jan-22 00:30N 50°21' W 000°49'12 6.9
2018-Jan-21 22:44N 50°25' W 000°30'2 6.9
2018-Jan-21 22:30N 50°25' W 000°28'4 7.2
2018-Jan-21 22:00N 50°26' W 000°22'4 7.9
2018-Jan-21 21:30N 50°27' W 000°16'5 8.7
2018-Jan-21 20:58N 50°28' W 000°09'4 9.4
2018-Jan-21 20:30N 50°29' W 000°03'510.2
2018-Jan-21 20:00N 50°31' E 000°05'510.8
2018-Jan-21 19:30N 50°32' E 000°13'611.4
2018-Jan-21 19:00N 50°34' E 000°22'611.8
2018-Jan-21 18:30N 50°35' E 000°31'611.7
2018-Jan-21 18:00N 50°38' E 000°39'611.7
2018-Jan-21 17:30N 50°41' E 000°47'611.2
2018-Jan-21 17:00N 50°44' E 000°55'510.7
2018-Jan-21 16:30N 50°46' E 001°02'510.3
2018-Jan-21 16:00N 50°49' E 001°09'5 9.7
2018-Jan-21 15:28N 50°53' E 001°15'4 8.9
2018-Jan-21 15:00N 50°56' E 001°19'4 8.6
2018-Jan-21 14:30N 50°59' E 001°24'4 8.7
2018-Jan-21 14:00N 51°02' E 001°28'5 9.2
2018-Jan-21 13:30N 51°05' E 001°33'5 9.7
2018-Jan-21 13:00N 51°09' E 001°39'510.5
2018-Jan-21 12:30N 51°13' E 001°45'611.7
2018-Jan-21 12:00N 51°17' E 001°50'612.6
2018-Jan-21 11:30N 51°23' E 001°55'612.9
2018-Jan-21 11:00N 51°28' E 002°01'713.3
2018-Jan-21 10:30N 51°33' E 002°08'713.2
2018-Jan-21 10:00N 51°38' E 002°15'7110.7
2018-Jan-21 03:20N 52°29' E 003°36'510.7
2018-Jan-21 02:53N 52°30' E 003°44'410.9
2018-Jan-21 02:30N 52°31' E 003°50'510.9
2018-Jan-21 02:00N 52°31' E 003°59'611.0
2018-Jan-21 01:30N 52°31' E 004°08'510.8
2018-Jan-21 01:00N 52°30' E 004°17'5 9.8
2018-Jan-21 00:30N 52°29' E 004°25'4 8.7
2018-Jan-21 00:01N 52°28' E 004°32'3 5.8
2018-Jan-20 23:31N 52°28' E 004°37'1 1.3
2018-Jan-20 23:01N 52°28' E 004°38'3 6.6
2018-Jan-20 22:31N 52°26' E 004°42'3 6.1
2018-Jan-20 22:01N 52°26' E 004°47'2 3.8
2018-Jan-20 21:30N 52°24' E 004°49'0 0.2
2018-Jan-20 20:59N 52°24' E 004°49'0 0.0
2018-Jan-20 20:29N 52°24' E 004°49'0 0.0
2018-Jan-20 19:59N 52°24' E 004°49'0 0.0
2018-Jan-20 19:29N 52°24' E 004°49'0 0.0
2018-Jan-20 18:59N 52°24' E 004°49'0 0.0
2018-Jan-20 18:29N 52°24' E 004°49'0 0.0
2018-Jan-20 17:59N 52°24' E 004°49'0 0.0
2018-Jan-20 17:29N 52°24' E 004°49'0 0.0
2018-Jan-20 16:59N 52°24' E 004°49'0 0.0
2018-Jan-20 16:29N 52°24' E 004°49'0 0.0
2018-Jan-20 15:59N 52°24' E 004°49'0 0.0
2018-Jan-20 15:29N 52°24' E 004°49'0 0.0
2018-Jan-20 14:59N 52°24' E 004°49'0 0.0
2018-Jan-20 14:29N 52°24' E 004°49'0 0.0
2018-Jan-20 13:59N 52°24' E 004°49'0 0.0
2018-Jan-20 13:29N 52°24' E 004°49'0 0.0
2018-Jan-20 12:59N 52°24' E 004°49'0 0.0
2018-Jan-20 12:29N 52°24' E 004°49'0 0.0
2018-Jan-20 11:59N 52°24' E 004°49'0 0.0
2018-Jan-20 11:29N 52°24' E 004°49'0 0.0
2018-Jan-20 10:59N 52°24' E 004°49'0 0.0
2018-Jan-20 10:29N 52°24' E 004°49'0 0.0
2018-Jan-20 09:59N 52°24' E 004°49'0 0.0
2018-Jan-20 09:29N 52°24' E 004°49'0 0.0
2018-Jan-20 08:59N 52°24' E 004°49'0 0.0
2018-Jan-20 08:29N 52°24' E 004°49'0 0.0
2018-Jan-20 07:59N 52°24' E 004°49'0 0.0
2018-Jan-20 07:29N 52°24' E 004°49'0 0.0
2018-Jan-20 06:59N 52°24' E 004°49'0 0.0
2018-Jan-20 06:29N 52°24' E 004°49'0 0.0
2018-Jan-20 05:59N 52°24' E 004°49'0 0.0
2018-Jan-20 05:29N 52°24' E 004°49'0 0.0
2018-Jan-20 04:59N 52°24' E 004°49'0 0.0
2018-Jan-20 04:29N 52°24' E 004°49'0 0.0
2018-Jan-20 03:59N 52°24' E 004°49'0 0.0
2018-Jan-20 03:29N 52°24' E 004°49'0 0.0
2018-Jan-20 02:59N 52°24' E 004°49'0 0.0
2018-Jan-20 02:29N 52°24' E 004°49'0 0.0
2018-Jan-20 01:59N 52°24' E 004°49'0 0.0
2018-Jan-20 01:29N 52°24' E 004°49'0 0.0
2018-Jan-20 00:59N 52°24' E 004°49'0 0.0
2018-Jan-20 00:29N 52°24' E 004°49'0 0.0
2018-Jan-19 23:59N 52°24' E 004°49'0 0.0
2018-Jan-19 23:29N 52°24' E 004°49'0 0.0
2018-Jan-19 22:59N 52°24' E 004°49'0 0.0
2018-Jan-19 22:29N 52°24' E 004°49'0 0.0
2018-Jan-19 21:59N 52°24' E 004°49'0 0.0
2018-Jan-19 21:29N 52°24' E 004°49'0 0.0
2018-Jan-19 20:59N 52°24' E 004°49'0 0.0
2018-Jan-19 20:29N 52°24' E 004°49'0 0.0
2018-Jan-19 19:59N 52°24' E 004°49'0 0.0
2018-Jan-19 19:29N 52°24' E 004°49'0 0.0
2018-Jan-19 18:59N 52°24' E 004°49'0 0.0
2018-Jan-19 18:29N 52°24' E 004°49'0 0.0
2018-Jan-19 17:59N 52°24' E 004°49'0 0.0
2018-Jan-19 17:29N 52°24' E 004°49'0 0.0
2018-Jan-19 16:59N 52°24' E 004°49'0 0.0
2018-Jan-19 16:29N 52°24' E 004°49'0 0.0
2018-Jan-19 15:59N 52°24' E 004°49'0 0.0
2018-Jan-19 15:29N 52°24' E 004°49'0 0.0
2018-Jan-19 14:59N 52°24' E 004°49'0 0.0
2018-Jan-19 14:29N 52°24' E 004°49'0 0.0
2018-Jan-19 13:59N 52°24' E 004°49'0 0.0
2018-Jan-19 13:29N 52°24' E 004°49'0 0.0
2018-Jan-19 12:59N 52°24' E 004°49'0 0.0
2018-Jan-19 12:29N 52°24' E 004°49'0 0.0
2018-Jan-19 11:59N 52°24' E 004°49'0 0.0
2018-Jan-19 11:29N 52°24' E 004°49'0 0.0
2018-Jan-19 10:59N 52°24' E 004°49'0 0.0
2018-Jan-19 10:29N 52°24' E 004°49'0 0.0
2018-Jan-19 09:59N 52°24' E 004°49'0 0.0
2018-Jan-19 09:29N 52°24' E 004°49'0 0.0
2018-Jan-19 08:59N 52°24' E 004°49'0 0.0
2018-Jan-19 08:29N 52°24' E 004°49'0 0.0
2018-Jan-19 07:59N 52°24' E 004°49'0 0.0
2018-Jan-19 07:29N 52°24' E 004°49'0 0.0
2018-Jan-19 06:59N 52°24' E 004°49'0 0.0
2018-Jan-19 06:29N 52°24' E 004°49'0 0.0
2018-Jan-19 05:59N 52°24' E 004°49'0 0.0
2018-Jan-19 05:29N 52°24' E 004°49'0 0.0
2018-Jan-19 04:59N 52°24' E 004°49'0 0.0
2018-Jan-19 04:29N 52°24' E 004°49'0 0.0
2018-Jan-19 03:59N 52°24' E 004°49'0 0.0
2018-Jan-19 03:29N 52°24' E 004°49'0 0.0
2018-Jan-19 02:59N 52°24' E 004°49'0 0.0
2018-Jan-19 02:29N 52°24' E 004°49'0 0.0
2018-Jan-19 01:59N 52°24' E 004°49'0 0.0
2018-Jan-19 01:29N 52°24' E 004°49'0 0.0
2018-Jan-19 00:59N 52°24' E 004°49'0 0.0
2018-Jan-19 00:29N 52°24' E 004°49'0 0.0
2018-Jan-18 23:59N 52°24' E 004°49'0 0.0
2018-Jan-18 23:29N 52°24' E 004°49'0 0.0
2018-Jan-18 22:59N 52°24' E 004°49'0 0.0
2018-Jan-18 22:29N 52°24' E 004°49'0 0.0
2018-Jan-18 21:59N 52°24' E 004°49'0 0.0
2018-Jan-18 21:29N 52°24' E 004°49'0 0.0
2018-Jan-18 20:59N 52°24' E 004°49'0 0.0
2018-Jan-18 20:29N 52°24' E 004°49'0 0.0
2018-Jan-18 19:59N 52°24' E 004°49'0 0.0
2018-Jan-18 19:26N 52°24' E 004°49'0 0.0
2018-Jan-18 18:59N 52°24' E 004°49'0 0.0
2018-Jan-18 18:29N 52°24' E 004°49'0 0.0
2018-Jan-18 17:59N 52°24' E 004°49'0 0.0
2018-Jan-18 17:29N 52°24' E 004°49'0 0.0
2018-Jan-18 16:59N 52°24' E 004°49'0 0.0
2018-Jan-18 16:29N 52°24' E 004°49'0 0.0
2018-Jan-18 15:59N 52°24' E 004°49'0 0.0
2018-Jan-18 15:29N 52°24' E 004°49'0 0.0
2018-Jan-18 14:59N 52°24' E 004°49'0 0.0
2018-Jan-18 14:29N 52°24' E 004°49'0 0.0
2018-Jan-18 13:59N 52°24' E 004°49'0 0.0
2018-Jan-18 13:26N 52°24' E 004°49'0 0.0
2018-Jan-18 12:59N 52°24' E 004°49'0 0.0
2018-Jan-18 12:29N 52°24' E 004°49'0 0.0
2018-Jan-18 11:59N 52°24' E 004°49'0 0.0
2018-Jan-18 11:29N 52°24' E 004°49'0 0.0
2018-Jan-18 10:59N 52°24' E 004°49'0 0.0
2018-Jan-18 10:29N 52°24' E 004°49'0 0.0
2018-Jan-18 09:59N 52°24' E 004°49'0 0.0
2018-Jan-18 09:29N 52°24' E 004°49'0 0.0
2018-Jan-18 08:59N 52°24' E 004°49'0 0.0
2018-Jan-18 08:29N 52°24' E 004°49'0 0.0
2018-Jan-18 07:56N 52°24' E 004°49'0 0.0
2018-Jan-18 07:29N 52°24' E 004°49'0 0.0
2018-Jan-18 06:59N 52°24' E 004°49'0 0.0
2018-Jan-18 06:29N 52°24' E 004°49'0 0.0
2018-Jan-18 05:59N 52°24' E 004°49'0 0.0
2018-Jan-18 05:29N 52°24' E 004°49'0 0.0
2018-Jan-18 04:59N 52°24' E 004°49'0 0.0
2018-Jan-18 04:29N 52°24' E 004°49'0 0.0
2018-Jan-18 03:59N 52°24' E 004°49'0 0.0
2018-Jan-18 03:29N 52°24' E 004°49'0 0.0
2018-Jan-18 02:59N 52°24' E 004°49'0 0.0
2018-Jan-18 02:29N 52°24' E 004°49'0 0.0
2018-Jan-18 01:59N 52°24' E 004°49'0 0.0
2018-Jan-18 01:29N 52°24' E 004°49'0 0.0
2018-Jan-18 00:59N 52°24' E 004°49'0 0.0
2018-Jan-17 23:56N 52°24' E 004°49'  
Track history (hours):
 
Tides and Currents Weather Stations Pressure Air Temp Water Temp Dewpoint Dewpoint Depression Visibility Wind Speed Wind Dir Waves Ship Positions

Zhong Hai Chang Yun6

Last reported at 2018-Jan-22 23:51 UTC. Time now 2018-Jan-23 06:19 UTC.
Position N 48°36' W 006°00'.

Length 189 m; draft 11.5 m.

Type: Cargo ship. MMSI: 414712000.

Date/timePositionNaut miles runAvg speedWind from/ knotsBaromVisibWave heightAir tempDewpointWater temp
2018-Jan-22 23:51N 48°36' W 006°00'411.3
2018-Jan-22 23:30N 48°39' W 005°58'610.8
2018-Jan-22 22:57N 48°45' W 005°53'510.7
2018-Jan-22 22:29N 48°49' W 005°49'510.1
2018-Jan-22 22:00N 48°53' W 005°46'6 9.0
2018-Jan-22 21:23N 48°57' W 005°39'3 8.7
2018-Jan-22 20:59N 48°58' W 005°35'4 8.4
2018-Jan-22 20:30N 49°01' W 005°29'46 8.6
2018-Jan-22 15:11N 49°24' W 004°30'910.3
2018-Jan-22 14:20N 49°28' W 004°18'410.3
2018-Jan-22 13:59N 49°30' W 004°13'510.4
2018-Jan-22 13:28N 49°33' W 004°06'510.2
2018-Jan-22 12:59N 49°35' W 003°60'5 9.9
2018-Jan-22 12:29N 49°38' W 003°53'5 9.8
2018-Jan-22 12:00N 49°40' W 003°47'5 9.4
2018-Jan-22 11:28N 49°43' W 003°40'4 9.2
2018-Jan-22 11:00N 49°45' W 003°34'4 8.9
2018-Jan-22 10:30N 49°47' W 003°28'4 8.9
2018-Jan-22 10:00N 49°50' W 003°23'4 8.5
2018-Jan-22 09:30N 49°51' W 003°17'4 8.7
2018-Jan-22 09:00N 49°54' W 003°11'5 9.2
2018-Jan-22 08:30N 49°56' W 003°05'5 9.4
2018-Jan-22 08:00N 49°58' W 002°58'510.0
2018-Jan-22 07:30N 49°60' W 002°51'510.6
2018-Jan-22 07:00N 50°01' W 002°43'611.5
2018-Jan-22 06:30N 50°03' W 002°34'612.1
2018-Jan-22 06:00N 50°04' W 002°25'4113.3
2018-Jan-22 02:54N 50°15' W 001°23'511.3
2018-Jan-22 02:29N 50°16' W 001°16'810.5
2018-Jan-22 01:44N 50°18' W 001°04'2 9.5
2018-Jan-22 01:30N 50°19' W 001°01'5 8.6
2018-Jan-22 00:58N 50°20' W 000°54'4 7.8
2018-Jan-22 00:30N 50°21' W 000°49'12 6.9
2018-Jan-21 22:44N 50°25' W 000°30'2 6.9
2018-Jan-21 22:30N 50°25' W 000°28'4 7.2
2018-Jan-21 22:00N 50°26' W 000°22'4 7.9
2018-Jan-21 21:30N 50°27' W 000°16'5 8.7
2018-Jan-21 20:58N 50°28' W 000°09'4 9.4
2018-Jan-21 20:30N 50°29' W 000°03'510.2
2018-Jan-21 20:00N 50°31' E 000°05'510.8
2018-Jan-21 19:30N 50°32' E 000°13'611.4
2018-Jan-21 19:00N 50°34' E 000°22'611.8
2018-Jan-21 18:30N 50°35' E 000°31'611.7
2018-Jan-21 18:00N 50°38' E 000°39'611.7
2018-Jan-21 17:30N 50°41' E 000°47'611.2
2018-Jan-21 17:00N 50°44' E 000°55'510.7
2018-Jan-21 16:30N 50°46' E 001°02'510.3
2018-Jan-21 16:00N 50°49' E 001°09'5 9.7
2018-Jan-21 15:28N 50°53' E 001°15'4 8.9
2018-Jan-21 15:00N 50°56' E 001°19'4 8.6
2018-Jan-21 14:30N 50°59' E 001°24'4 8.7
2018-Jan-21 14:00N 51°02' E 001°28'5 9.2
2018-Jan-21 13:30N 51°05' E 001°33'5 9.7
2018-Jan-21 13:00N 51°09' E 001°39'510.5
2018-Jan-21 12:30N 51°13' E 001°45'611.7
2018-Jan-21 12:00N 51°17' E 001°50'612.6
2018-Jan-21 11:30N 51°23' E 001°55'612.9
2018-Jan-21 11:00N 51°28' E 002°01'713.3
2018-Jan-21 10:30N 51°33' E 002°08'713.2
2018-Jan-21 10:00N 51°38' E 002°15'7110.7
2018-Jan-21 03:20N 52°29' E 003°36'510.7
2018-Jan-21 02:53N 52°30' E 003°44'410.9
2018-Jan-21 02:30N 52°31' E 003°50'510.9
2018-Jan-21 02:00N 52°31' E 003°59'611.0
2018-Jan-21 01:30N 52°31' E 004°08'510.8
2018-Jan-21 01:00N 52°30' E 004°17'5 9.8
2018-Jan-21 00:30N 52°29' E 004°25'4 8.7
2018-Jan-21 00:01N 52°28' E 004°32'3 5.8
2018-Jan-20 23:31N 52°28' E 004°37'1 1.3
2018-Jan-20 23:01N 52°28' E 004°38'3 6.6
2018-Jan-20 22:31N 52°26' E 004°42'3 6.1
2018-Jan-20 22:01N 52°26' E 004°47'2 3.8
2018-Jan-20 21:30N 52°24' E 004°49'0 0.2
2018-Jan-20 20:59N 52°24' E 004°49'0 0.0
2018-Jan-20 20:29N 52°24' E 004°49'0 0.0
2018-Jan-20 19:59N 52°24' E 004°49'0 0.0
2018-Jan-20 19:29N 52°24' E 004°49'0 0.0
2018-Jan-20 18:59N 52°24' E 004°49'0 0.0
2018-Jan-20 18:29N 52°24' E 004°49'0 0.0
2018-Jan-20 17:59N 52°24' E 004°49'0 0.0
2018-Jan-20 17:29N 52°24' E 004°49'0 0.0
2018-Jan-20 16:59N 52°24' E 004°49'0 0.0
2018-Jan-20 16:29N 52°24' E 004°49'0 0.0
2018-Jan-20 15:59N 52°24' E 004°49'0 0.0
2018-Jan-20 15:29N 52°24' E 004°49'0 0.0
2018-Jan-20 14:59N 52°24' E 004°49'0 0.0
2018-Jan-20 14:29N 52°24' E 004°49'0 0.0
2018-Jan-20 13:59N 52°24' E 004°49'0 0.0
2018-Jan-20 13:29N 52°24' E 004°49'0 0.0
2018-Jan-20 12:59N 52°24' E 004°49'0 0.0
2018-Jan-20 12:29N 52°24' E 004°49'0 0.0
2018-Jan-20 11:59N 52°24' E 004°49'0 0.0
2018-Jan-20 11:29N 52°24' E 004°49'0 0.0
2018-Jan-20 10:59N 52°24' E 004°49'0 0.0
2018-Jan-20 10:29N 52°24' E 004°49'0 0.0
2018-Jan-20 09:59N 52°24' E 004°49'0 0.0
2018-Jan-20 09:29N 52°24' E 004°49'0 0.0
2018-Jan-20 08:59N 52°24' E 004°49'0 0.0
2018-Jan-20 08:29N 52°24' E 004°49'0 0.0
2018-Jan-20 07:59N 52°24' E 004°49'0 0.0
2018-Jan-20 07:29N 52°24' E 004°49'0 0.0
2018-Jan-20 06:59N 52°24' E 004°49'0 0.0
2018-Jan-20 06:29N 52°24' E 004°49'0 0.0
2018-Jan-20 05:59N 52°24' E 004°49'0 0.0
2018-Jan-20 05:29N 52°24' E 004°49'0 0.0
2018-Jan-20 04:59N 52°24' E 004°49'0 0.0
2018-Jan-20 04:29N 52°24' E 004°49'0 0.0
2018-Jan-20 03:59N 52°24' E 004°49'0 0.0
2018-Jan-20 03:29N 52°24' E 004°49'0 0.0
2018-Jan-20 02:59N 52°24' E 004°49'0 0.0
2018-Jan-20 02:29N 52°24' E 004°49'0 0.0
2018-Jan-20 01:59N 52°24' E 004°49'0 0.0
2018-Jan-20 01:29N 52°24' E 004°49'0 0.0
2018-Jan-20 00:59N 52°24' E 004°49'0 0.0
2018-Jan-20 00:29N 52°24' E 004°49'0 0.0
2018-Jan-19 23:59N 52°24' E 004°49'0 0.0
2018-Jan-19 23:29N 52°24' E 004°49'0 0.0
2018-Jan-19 22:59N 52°24' E 004°49'0 0.0
2018-Jan-19 22:29N 52°24' E 004°49'0 0.0
2018-Jan-19 21:59N 52°24' E 004°49'0 0.0
2018-Jan-19 21:29N 52°24' E 004°49'0 0.0
2018-Jan-19 20:59N 52°24' E 004°49'0 0.0
2018-Jan-19 20:29N 52°24' E 004°49'0 0.0
2018-Jan-19 19:59N 52°24' E 004°49'0 0.0
2018-Jan-19 19:29N 52°24' E 004°49'0 0.0
2018-Jan-19 18:59N 52°24' E 004°49'0 0.0
2018-Jan-19 18:29N 52°24' E 004°49'0 0.0
2018-Jan-19 17:59N 52°24' E 004°49'0 0.0
2018-Jan-19 17:29N 52°24' E 004°49'0 0.0
2018-Jan-19 16:59N 52°24' E 004°49'0 0.0
2018-Jan-19 16:29N 52°24' E 004°49'0 0.0
2018-Jan-19 15:59N 52°24' E 004°49'0 0.0
2018-Jan-19 15:29N 52°24' E 004°49'0 0.0
2018-Jan-19 14:59N 52°24' E 004°49'0 0.0
2018-Jan-19 14:29N 52°24' E 004°49'0 0.0
2018-Jan-19 13:59N 52°24' E 004°49'0 0.0
2018-Jan-19 13:29N 52°24' E 004°49'0 0.0
2018-Jan-19 12:59N 52°24' E 004°49'0 0.0
2018-Jan-19 12:29N 52°24' E 004°49'0 0.0
2018-Jan-19 11:59N 52°24' E 004°49'0 0.0
2018-Jan-19 11:29N 52°24' E 004°49'0 0.0
2018-Jan-19 10:59N 52°24' E 004°49'0 0.0
2018-Jan-19 10:29N 52°24' E 004°49'0 0.0
2018-Jan-19 09:59N 52°24' E 004°49'0 0.0
2018-Jan-19 09:29N 52°24' E 004°49'0 0.0
2018-Jan-19 08:59N 52°24' E 004°49'0 0.0
2018-Jan-19 08:29N 52°24' E 004°49'0 0.0
2018-Jan-19 07:59N 52°24' E 004°49'0 0.0
2018-Jan-19 07:29N 52°24' E 004°49'0 0.0
2018-Jan-19 06:59N 52°24' E 004°49'0 0.0
2018-Jan-19 06:29N 52°24' E 004°49'0 0.0
2018-Jan-19 05:59N 52°24' E 004°49'0 0.0
2018-Jan-19 05:29N 52°24' E 004°49'0 0.0
2018-Jan-19 04:59N 52°24' E 004°49'0 0.0
2018-Jan-19 04:29N 52°24' E 004°49'0 0.0
2018-Jan-19 03:59N 52°24' E 004°49'0 0.0
2018-Jan-19 03:29N 52°24' E 004°49'0 0.0
2018-Jan-19 02:59N 52°24' E 004°49'0 0.0
2018-Jan-19 02:29N 52°24' E 004°49'0 0.0
2018-Jan-19 01:59N 52°24' E 004°49'0 0.0
2018-Jan-19 01:29N 52°24' E 004°49'0 0.0
2018-Jan-19 00:59N 52°24' E 004°49'0 0.0
2018-Jan-19 00:29N 52°24' E 004°49'0 0.0
2018-Jan-18 23:59N 52°24' E 004°49'0 0.0
2018-Jan-18 23:29N 52°24' E 004°49'0 0.0
2018-Jan-18 22:59N 52°24' E 004°49'0 0.0
2018-Jan-18 22:29N 52°24' E 004°49'0 0.0
2018-Jan-18 21:59N 52°24' E 004°49'0 0.0
2018-Jan-18 21:29N 52°24' E 004°49'0 0.0
2018-Jan-18 20:59N 52°24' E 004°49'0 0.0
2018-Jan-18 20:29N 52°24' E 004°49'0 0.0
2018-Jan-18 19:59N 52°24' E 004°49'0 0.0
2018-Jan-18 19:26N 52°24' E 004°49'0 0.0
2018-Jan-18 18:59N 52°24' E 004°49'0 0.0
2018-Jan-18 18:29N 52°24' E 004°49'0 0.0
2018-Jan-18 17:59N 52°24' E 004°49'0 0.0
2018-Jan-18 17:29N 52°24' E 004°49'0 0.0
2018-Jan-18 16:59N 52°24' E 004°49'0 0.0
2018-Jan-18 16:29N 52°24' E 004°49'0 0.0
2018-Jan-18 15:59N 52°24' E 004°49'0 0.0
2018-Jan-18 15:29N 52°24' E 004°49'0 0.0
2018-Jan-18 14:59N 52°24' E 004°49'0 0.0
2018-Jan-18 14:29N 52°24' E 004°49'0 0.0
2018-Jan-18 13:59N 52°24' E 004°49'0 0.0
2018-Jan-18 13:26N 52°24' E 004°49'0 0.0
2018-Jan-18 12:59N 52°24' E 004°49'0 0.0
2018-Jan-18 12:29N 52°24' E 004°49'0 0.0
2018-Jan-18 11:59N 52°24' E 004°49'0 0.0
2018-Jan-18 11:29N 52°24' E 004°49'0 0.0
2018-Jan-18 10:59N 52°24' E 004°49'0 0.0
2018-Jan-18 10:29N 52°24' E 004°49'0 0.0
2018-Jan-18 09:59N 52°24' E 004°49'0 0.0
2018-Jan-18 09:29N 52°24' E 004°49'0 0.0
2018-Jan-18 08:59N 52°24' E 004°49'0 0.0
2018-Jan-18 08:29N 52°24' E 004°49'0 0.0
2018-Jan-18 07:56N 52°24' E 004°49'0 0.0
2018-Jan-18 07:29N 52°24' E 004°49'0 0.0
2018-Jan-18 06:59N 52°24' E 004°49'0 0.0
2018-Jan-18 06:29N 52°24' E 004°49'0 0.0
2018-Jan-18 05:59N 52°24' E 004°49'0 0.0
2018-Jan-18 05:29N 52°24' E 004°49'0 0.0
2018-Jan-18 04:59N 52°24' E 004°49'0 0.0
2018-Jan-18 04:29N 52°24' E 004°49'0 0.0
2018-Jan-18 03:59N 52°24' E 004°49'0 0.0
2018-Jan-18 03:29N 52°24' E 004°49'0 0.0
2018-Jan-18 02:59N 52°24' E 004°49'0 0.0
2018-Jan-18 02:29N 52°24' E 004°49'0 0.0
2018-Jan-18 01:59N 52°24' E 004°49'0 0.0
2018-Jan-18 01:29N 52°24' E 004°49'0 0.0
2018-Jan-18 00:59N 52°24' E 004°49'0 0.0
2018-Jan-17 23:56N 52°24' E 004°49'  

Dump ship's entire track history